createdAt,value
2018-04-18T00:02:19.424Z,14.80
2018-04-18T00:04:47.748Z,15.00
2018-04-18T00:07:15.271Z,15.00
2018-04-18T00:09:43.580Z,15.10
2018-04-18T00:12:11.107Z,15.10
2018-04-18T00:14:39.395Z,15.00
2018-04-18T00:17:06.948Z,15.00
2018-04-18T00:19:34.526Z,14.90
2018-04-18T00:22:02.040Z,14.90
2018-04-18T00:24:29.578Z,14.80
2018-04-18T00:26:57.160Z,14.70
2018-04-18T00:29:24.784Z,14.70
2018-04-18T00:31:52.314Z,14.70
2018-04-18T00:34:19.848Z,14.60
2018-04-18T00:36:48.172Z,14.70
2018-04-18T00:39:15.693Z,14.70
2018-04-18T00:41:43.996Z,14.60
2018-04-18T00:44:11.530Z,14.60
2018-04-18T00:46:39.919Z,14.40
2018-04-18T00:49:08.210Z,14.40
2018-04-18T00:51:35.750Z,14.40
2018-04-18T00:54:04.045Z,14.30
2018-04-18T00:56:31.971Z,14.30
2018-04-18T00:58:59.509Z,14.30
2018-04-18T01:01:27.029Z,14.30
2018-04-18T01:03:54.576Z,14.40
2018-04-18T01:06:22.858Z,14.30
2018-04-18T01:08:51.209Z,14.20
2018-04-18T01:11:18.756Z,14.20
2018-04-18T01:13:46.315Z,14.10
2018-04-18T01:16:13.939Z,14.10
2018-04-18T01:18:41.473Z,14.30
2018-04-18T01:21:09.761Z,14.30
2018-04-18T01:23:37.289Z,14.30
2018-04-18T01:26:04.826Z,14.40
2018-04-18T01:28:32.365Z,14.30
2018-04-18T01:30:59.896Z,14.30
2018-04-18T01:33:28.179Z,14.30
2018-04-18T01:35:55.725Z,14.30
2018-04-18T01:38:24.012Z,14.30
2018-04-18T01:40:51.736Z,14.30
2018-04-18T01:43:19.309Z,14.20
2018-04-18T01:45:46.931Z,14.20
2018-04-18T01:48:14.554Z,14.20
2018-04-18T01:50:42.854Z,14.20
2018-04-18T01:53:10.379Z,14.20
2018-04-18T01:55:38.664Z,14.20
2018-04-18T01:58:06.966Z,14.20
2018-04-18T02:00:34.942Z,14.20
2018-04-18T02:03:02.481Z,14.20
2018-04-18T02:05:30.003Z,14.10
2018-04-18T02:07:57.551Z,14.10
2018-04-18T02:10:25.080Z,14.10
2018-04-18T02:12:52.676Z,14.20
2018-04-18T02:15:20.217Z,14.30
2018-04-18T02:17:48.613Z,14.20
2018-04-18T02:20:16.144Z,14.20
2018-04-18T02:22:43.659Z,14.20
2018-04-18T02:25:11.975Z,14.10
2018-04-18T02:27:39.513Z,14.10
2018-04-18T02:30:07.107Z,14.10
2018-04-18T02:32:34.636Z,14.20
2018-04-18T02:35:02.187Z,14.20
2018-04-18T02:37:30.506Z,14.00
2018-04-18T02:39:58.030Z,14.00
2018-04-18T02:42:25.561Z,14.00
2018-04-18T02:44:53.083Z,13.90
2018-04-18T02:47:20.616Z,14.00
2018-04-18T03:02:53.194Z,14.00
2018-04-18T03:05:20.861Z,13.20
2018-04-18T03:07:48.420Z,13.30
2018-04-18T03:10:15.963Z,13.50
2018-04-18T03:12:43.501Z,13.60
2018-04-18T03:15:11.855Z,13.60
2018-04-18T03:17:39.411Z,13.60
2018-04-18T03:20:06.934Z,13.60
2018-04-18T03:22:35.210Z,13.70
2018-04-18T03:25:02.747Z,13.70
2018-04-18T03:27:31.031Z,13.60
2018-04-18T03:29:58.544Z,13.60
2018-04-18T03:32:26.133Z,13.70
2018-04-18T03:34:54.436Z,13.60
2018-04-18T03:37:21.968Z,13.60
2018-04-18T03:39:50.259Z,13.60
2018-04-18T03:42:18.563Z,13.70
2018-04-18T03:44:46.108Z,13.60
2018-04-18T03:47:13.696Z,13.60
2018-04-18T03:49:41.274Z,13.60
2018-04-18T03:52:08.784Z,13.50
2018-04-18T03:54:36.325Z,13.60
2018-04-18T03:57:04.647Z,13.70
2018-04-18T03:59:32.606Z,13.60
2018-04-18T04:02:00.225Z,13.60
2018-04-18T04:04:28.542Z,13.70
2018-04-18T04:06:56.051Z,13.70
2018-04-18T04:09:23.612Z,13.80
2018-04-18T04:11:51.138Z,13.80
2018-04-18T04:14:21.172Z,13.90
2018-04-18T04:17:00.531Z,13.90
2018-04-18T04:19:39.791Z,13.80
2018-04-18T13:27:49.920Z,30.20
2018-04-18T13:30:17.454Z,30.20
2018-04-18T13:32:45.783Z,29.80
2018-04-18T13:35:13.318Z,29.70
2018-04-18T13:37:40.860Z,30.00
2018-04-18T13:40:09.194Z,31.10
2018-04-18T13:42:36.741Z,31.10
2018-04-18T13:45:04.424Z,31.70
2018-04-18T13:47:31.951Z,32.40
2018-04-18T13:49:59.485Z,32.30
2018-04-18T13:52:27.767Z,34.20
2018-04-18T13:54:56.226Z,34.50
2018-04-18T13:57:23.849Z,34.40
2018-04-18T13:59:51.394Z,34.60
2018-04-18T14:02:19.379Z,34.20
2018-04-18T14:04:46.910Z,35.20
2018-04-18T14:07:14.465Z,35.90
2018-04-18T14:09:41.987Z,35.80
2018-04-18T14:12:10.383Z,35.70
2018-04-18T14:14:38.706Z,36.10
2018-04-18T14:17:06.260Z,36.00
2018-04-18T14:19:33.831Z,36.00
2018-04-18T14:22:01.373Z,36.20
2018-04-18T14:24:28.911Z,36.00
2018-04-18T14:26:57.203Z,35.30
2018-04-18T14:29:24.737Z,35.30
2018-04-18T14:31:53.119Z,35.00
2018-04-18T14:34:21.494Z,34.80
2018-04-18T14:36:49.787Z,34.50
2018-04-18T14:39:18.100Z,34.10
2018-04-18T14:41:45.638Z,34.10
2018-04-18T14:44:13.182Z,33.80
2018-04-18T14:46:41.564Z,33.60
2018-04-18T14:49:09.147Z,33.60
2018-04-18T14:51:36.699Z,33.40
2018-04-18T14:54:04.228Z,33.00
2018-04-18T14:56:32.558Z,32.80
2018-04-18T14:59:00.092Z,32.80
2018-04-18T15:01:27.981Z,32.40
2018-04-18T15:03:55.687Z,32.00
2018-04-18T15:06:23.224Z,31.90
2018-04-18T15:08:51.315Z,31.80
2018-04-18T15:11:18.860Z,31.50
2018-04-18T15:13:46.407Z,31.50
2018-04-18T15:16:13.930Z,31.60
2018-04-18T15:18:41.504Z,31.70
2018-04-18T15:21:09.037Z,31.70
2018-04-18T15:23:37.368Z,31.00
2018-04-18T15:26:04.893Z,31.00
2018-04-18T15:28:32.445Z,30.80
2018-04-18T15:31:00.002Z,30.90
2018-04-18T15:33:27.558Z,30.90
2018-04-18T15:35:56.449Z,31.20
2018-04-18T15:38:24.785Z,31.20
2018-04-18T15:40:52.318Z,31.20
2018-04-18T15:43:20.156Z,31.20
2018-04-18T15:45:47.698Z,30.50
2018-04-18T15:48:16.012Z,31.00
2018-04-18T15:50:43.545Z,31.00
2018-04-18T15:53:11.840Z,30.50
2018-04-18T15:55:39.407Z,30.40
2018-04-18T15:58:07.604Z,29.60
2018-04-18T16:00:35.208Z,29.10
2018-04-18T16:03:03.499Z,27.70
2018-04-18T16:05:31.800Z,27.50
2018-04-18T16:07:59.335Z,27.50
2018-04-18T16:10:27.625Z,27.10
2018-04-18T16:12:55.156Z,27.00
2018-04-18T16:15:22.696Z,27.10
2018-04-18T16:17:50.234Z,27.10
2018-04-18T16:20:17.756Z,26.60
2018-04-18T16:22:46.756Z,26.40
2018-04-18T16:25:14.273Z,26.40
2018-04-18T16:27:42.531Z,26.30
2018-04-18T16:30:23.192Z,26.20
2018-04-18T16:35:44.028Z,26.10
2018-04-18T16:38:11.565Z,25.90
2018-04-18T16:40:39.118Z,25.70
2018-04-18T16:43:06.627Z,25.70
2018-04-18T16:45:34.178Z,25.70
2018-04-18T16:48:01.705Z,25.80
2018-04-18T16:50:29.249Z,25.90
2018-04-18T16:52:56.774Z,25.80
2018-04-18T16:55:25.112Z,25.60
2018-04-18T16:57:52.725Z,25.60
2018-04-18T17:00:20.503Z,25.50
2018-04-18T17:02:48.052Z,25.50
2018-04-18T17:05:16.350Z,25.50
2018-04-18T17:07:44.326Z,25.50
2018-04-18T17:10:11.857Z,25.40
2018-04-18T17:12:40.162Z,25.30
2018-04-18T17:15:07.744Z,25.20
2018-04-18T17:17:36.553Z,25.10
2018-04-18T17:20:04.113Z,25.00
2018-04-18T17:22:31.658Z,25.00
2018-04-18T17:24:59.234Z,25.00
2018-04-18T17:27:27.014Z,25.00
2018-04-18T17:29:54.581Z,24.90
2018-04-18T17:32:23.015Z,24.70
2018-04-18T17:34:50.658Z,24.70
2018-04-18T17:37:18.202Z,24.70
2018-04-18T17:39:45.748Z,24.60
2018-04-18T17:42:14.056Z,24.40
2018-04-18T17:44:41.912Z,24.40
2018-04-18T17:47:09.435Z,24.40
2018-04-18T17:49:36.989Z,24.30
2018-04-18T17:52:04.579Z,24.20
2018-04-18T17:54:32.894Z,24.20
2018-04-18T17:57:06.901Z,24.10
2018-04-18T17:59:34.444Z,24.10
2018-04-18T18:02:03.157Z,24.00
2018-04-18T18:04:30.770Z,23.90
2018-04-18T18:06:58.329Z,23.80
2018-04-18T18:09:26.627Z,23.70
2018-04-18T18:21:44.946Z,22.70
2018-04-18T18:24:12.464Z,22.70
2018-04-18T18:26:40.012Z,22.70
2018-04-18T18:29:07.565Z,22.70
2018-04-18T18:31:35.213Z,22.70
2018-04-18T18:34:02.761Z,22.70
2018-04-18T18:36:30.337Z,22.70
2018-04-18T18:38:57.924Z,22.60
2018-04-18T18:41:25.450Z,22.50
2018-04-18T18:43:54.706Z,22.50
2018-04-18T18:46:23.012Z,22.40
2018-04-18T18:48:50.547Z,22.40
2018-04-18T18:51:18.086Z,22.30
2018-04-18T18:53:46.398Z,22.20
2018-04-18T18:56:13.968Z,22.20
2018-04-18T18:58:41.513Z,22.10
2018-04-18T19:01:09.042Z,22.00
2018-04-18T19:03:36.568Z,21.90
2018-04-18T19:06:04.116Z,21.90
2018-04-18T19:08:31.637Z,21.80
2018-04-18T19:10:59.941Z,21.70
2018-04-18T19:13:27.484Z,21.60
2018-04-18T19:15:55.024Z,21.60
2018-04-18T19:18:23.361Z,21.50
2018-04-18T19:20:50.930Z,21.40
2018-04-18T19:23:18.463Z,21.40
2018-04-18T19:25:45.978Z,21.20
2018-04-18T19:28:14.381Z,21.20
2018-04-18T19:30:41.942Z,21.20
2018-04-18T19:33:09.488Z,21.20
2018-04-18T19:35:38.268Z,21.00
2018-04-18T19:38:06.593Z,21.00
2018-04-18T19:40:34.125Z,21.00
2018-04-18T19:43:01.691Z,21.00
2018-04-18T19:45:33.006Z,20.90
2018-04-18T19:48:00.572Z,21.00
2018-04-18T19:50:28.881Z,20.90
2018-04-18T19:52:56.432Z,20.90
2018-04-18T19:55:23.970Z,20.90
2018-04-18T19:57:52.283Z,20.80
2018-04-18T20:00:19.843Z,20.80
2018-04-18T20:02:47.385Z,20.80
2018-04-18T20:05:15.697Z,20.70
2018-04-18T20:07:45.399Z,20.70
2018-04-18T20:10:13.386Z,20.70
2018-04-18T20:12:40.923Z,20.70
2018-04-18T20:15:09.321Z,20.60
2018-04-18T20:17:36.845Z,20.50
2018-04-18T20:20:04.428Z,20.40
2018-04-18T20:22:32.065Z,20.40
2018-04-18T20:25:00.434Z,20.20
2018-04-18T20:27:28.760Z,20.00
2018-04-18T20:29:56.296Z,20.00
2018-04-18T20:32:23.837Z,19.90
2018-04-18T20:34:52.163Z,19.80
2018-04-18T20:37:19.740Z,19.80
2018-04-18T20:39:47.271Z,19.80
2018-04-18T20:42:14.796Z,19.80
2018-04-18T20:44:43.134Z,19.70
2018-04-18T20:47:10.714Z,19.70
2018-04-18T20:49:38.264Z,19.70
2018-04-18T20:52:06.369Z,19.60
2018-04-18T20:54:33.926Z,19.60
2018-04-18T20:57:02.235Z,19.50
2018-04-18T20:59:29.804Z,19.50
2018-04-18T21:01:57.496Z,19.40
2018-04-18T21:04:25.105Z,19.40
2018-04-18T21:06:52.733Z,19.30
2018-04-18T21:09:21.050Z,19.20
2018-04-18T21:11:48.585Z,19.10
2018-04-18T21:14:16.883Z,19.10
2018-04-18T21:16:44.440Z,19.10
2018-04-18T21:19:11.971Z,19.00
2018-04-18T21:21:40.272Z,18.90
2018-04-18T21:24:07.801Z,18.80
2018-04-18T21:26:36.179Z,18.80
2018-04-18T21:29:03.702Z,18.70
2018-04-18T21:31:31.912Z,18.70
2018-04-18T21:33:59.441Z,18.60
2018-04-18T21:36:30.977Z,18.50
2018-04-18T21:38:58.500Z,18.50
2018-04-18T21:41:26.806Z,18.40
2018-04-18T21:43:54.375Z,18.40
2018-04-18T21:46:21.992Z,18.30
2018-04-18T21:48:50.295Z,18.30
2018-04-18T21:51:18.687Z,18.20
2018-04-18T21:53:46.929Z,18.10
2018-04-18T21:56:15.220Z,18.00
2018-04-18T21:58:42.783Z,17.90
2018-04-18T22:01:10.307Z,17.90
2018-04-18T22:03:38.119Z,17.80
2018-04-18T22:06:06.227Z,17.80
2018-04-18T22:08:33.793Z,17.80
2018-04-18T22:11:01.379Z,17.80
2018-04-18T22:13:29.674Z,17.80
2018-04-18T22:15:57.287Z,17.80
2018-04-18T22:18:24.820Z,17.80
2018-04-18T22:20:52.368Z,17.80
2018-04-18T22:23:19.885Z,17.80
2018-04-18T22:25:47.464Z,17.70
2018-04-18T22:28:15.765Z,17.60
2018-04-18T22:30:43.313Z,17.60
2018-04-18T22:33:10.848Z,17.50
2018-04-18T22:35:39.163Z,17.50
2018-04-18T22:38:06.694Z,17.50
2018-04-18T22:40:34.984Z,17.40
2018-04-18T22:43:02.533Z,17.40
2018-04-18T22:45:31.022Z,17.30
2018-04-18T22:47:59.337Z,17.30
2018-04-18T22:50:26.855Z,17.30
2018-04-18T22:52:55.152Z,17.20
2018-04-18T22:55:22.679Z,17.20
2018-04-18T22:57:51.008Z,16.90
2018-04-18T23:00:21.384Z,16.80
2018-04-18T23:02:48.927Z,16.80
2018-04-18T23:05:16.640Z,16.50
2018-04-18T23:07:44.253Z,16.50
2018-04-18T23:10:11.813Z,16.60
2018-04-18T23:12:39.416Z,16.60
2018-04-18T23:15:06.962Z,16.70
2018-04-18T23:17:35.255Z,16.50
2018-04-18T23:20:02.830Z,16.50
2018-04-18T23:22:34.326Z,16.50
2018-04-18T23:25:01.865Z,16.60
2018-04-18T23:27:29.420Z,16.50
2018-04-18T23:30:00.771Z,16.40
2018-04-18T23:32:28.313Z,16.40
2018-04-18T23:34:55.844Z,16.40
2018-04-18T23:37:24.140Z,16.40
2018-04-18T23:39:51.724Z,16.40
2018-04-18T23:42:19.315Z,16.50
2018-04-18T23:44:46.868Z,16.50
2018-04-18T23:47:14.441Z,16.40
2018-04-18T23:49:42.781Z,16.40
2018-04-18T23:52:11.046Z,16.20
2018-04-18T23:54:38.560Z,16.30
2018-04-18T23:57:06.090Z,16.30
2018-04-18T23:59:33.619Z,16.30
